Bexleyheath, United Kingdom
Current Conditions -  °F | °C
As of 2:20 PM on Wednesday 28 Jan 2015 (Local Time) from EGLC Reporting Station
Few Clouds Few Clouds  
Wind Chill: 35°   Ceiling: Unl
Heat Index: 45°   Visibility: 6mi
Dew Point: 32°   Wind: 25mph
Humidity: 61%   Direction: 280°W
Pressure: 29.53"   Gusts: 38mph
Location:  51.45°N, 0.14°E
Report Text: EGLC 281420Z 28022G33KT 9999 FEW028 07/00 Q1000
Loading
Personal Weather Stations






























Interactive Weather Map New forecast layout! Learn more

10-Day Weather Forecast

Advertisements
Track Severe Weather on mobile